sensor_id;sensor_type;location;lat;lon;timestamp;temperature;humidity
13174;DHT22;6652;48.802;9.190;2023-11-21T00:00:57;9.20;99.90
13174;DHT22;6652;48.802;9.190;2023-11-21T00:03:27;9.20;99.90
13174;DHT22;6652;48.802;9.190;2023-11-21T00:05:54;9.20;99.90
13174;DHT22;6652;48.802;9.190;2023-11-21T00:08:21;9.20;99.90
13174;DHT22;6652;48.802;9.190;2023-11-21T00:10:47;9.20;99.90
13174;DHT22;6652;48.802;9.190;2023-11-21T00:13:16;9.20;99.90
13174;DHT22;6652;48.802;9.190;2023-11-21T00:15:43;9.10;99.90
13174;DHT22;6652;48.802;9.190;2023-11-21T00:18:10;9.10;99.90
13174;DHT22;6652;48.802;9.190;2023-11-21T00:20:36;9.10;99.90
13174;DHT22;6652;48.802;9.190;2023-11-21T00:23:03;8.90;99.90
13174;DHT22;6652;48.802;9.190;2023-11-21T00:25:30;8.90;99.90
13174;DHT22;6652;48.802;9.190;2023-11-21T00:27:57;8.90;99.90
13174;DHT22;6652;48.802;9.190;2023-11-21T00:30:26;8.90;99.90
13174;DHT22;6652;48.802;9.190;2023-11-21T00:32:53;8.80;99.90
13174;DHT22;6652;48.802;9.190;2023-11-21T00:35:20;9.70;99.90
13174;DHT22;6652;48.802;9.190;2023-11-21T00:37:46;9.10;99.90
13174;DHT22;6652;48.802;9.190;2023-11-21T00:40:15;9.30;99.90
13174;DHT22;6652;48.802;9.190;2023-11-21T00:42:44;8.90;99.90
13174;DHT22;6652;48.802;9.190;2023-11-21T00:45:12;9.70;99.90
13174;DHT22;6652;48.802;9.190;2023-11-21T00:47:40;8.90;99.90
13174;DHT22;6652;48.802;9.190;2023-11-21T00:50:08;9.00;99.90
13174;DHT22;6652;48.802;9.190;2023-11-21T00:52:35;9.00;99.90
13174;DHT22;6652;48.802;9.190;2023-11-21T00:55:02;9.00;99.90
13174;DHT22;6652;48.802;9.190;2023-11-21T00:57:29;9.00;99.90
13174;DHT22;6652;48.802;9.190;2023-11-21T00:59:56;9.00;99.90
13174;DHT22;6652;48.802;9.190;2023-11-21T01:02:23;9.10;99.90
13174;DHT22;6652;48.802;9.190;2023-11-21T01:04:52;9.10;99.90
13174;DHT22;6652;48.802;9.190;2023-11-21T01:07:18;9.10;99.90
13174;DHT22;6652;48.802;9.190;2023-11-21T01:09:46;9.10;99.90
13174;DHT22;6652;48.802;9.190;2023-11-21T01:12:12;9.10;99.90
13174;DHT22;6652;48.802;9.190;2023-11-21T01:14:39;9.10;99.90
13174;DHT22;6652;48.802;9.190;2023-11-21T01:17:06;9.10;99.90
13174;DHT22;6652;48.802;9.190;2023-11-21T01:19:33;9.10;99.90
13174;DHT22;6652;48.802;9.190;2023-11-21T01:22:01;9.10;99.90
13174;DHT22;6652;48.802;9.190;2023-11-21T01:24:29;9.10;99.90
13174;DHT22;6652;48.802;9.190;2023-11-21T01:26:56;9.00;99.90
13174;DHT22;6652;48.802;9.190;2023-11-21T01:29:22;9.00;99.90
13174;DHT22;6652;48.802;9.190;2023-11-21T01:31:49;9.60;99.90
13174;DHT22;6652;48.802;9.190;2023-11-21T01:34:17;9.00;99.90
13174;DHT22;6652;48.802;9.190;2023-11-21T01:36:45;9.00;99.90
13174;DHT22;6652;48.802;9.190;2023-11-21T01:39:14;10.00;99.90
13174;DHT22;6652;48.802;9.190;2023-11-21T01:41:41;10.30;99.90
13174;DHT22;6652;48.802;9.190;2023-11-21T01:44:09;9.80;99.90
13174;DHT22;6652;48.802;9.190;2023-11-21T01:46:36;9.00;99.90
13174;DHT22;6652;48.802;9.190;2023-11-21T01:49:04;9.10;99.90
13174;DHT22;6652;48.802;9.190;2023-11-21T01:51:32;9.00;99.90
13174;DHT22;6652;48.802;9.190;2023-11-21T01:53:59;9.10;99.90
13174;DHT22;6652;48.802;9.190;2023-11-21T01:56:27;9.00;99.90
13174;DHT22;6652;48.802;9.190;2023-11-21T01:58:56;9.00;99.90
13174;DHT22;6652;48.802;9.190;2023-11-21T02:01:23;9.00;99.90
13174;DHT22;6652;48.802;9.190;2023-11-21T02:03:51;9.00;99.90
13174;DHT22;6652;48.802;9.190;2023-11-21T02:06:18;9.00;99.90
13174;DHT22;6652;48.802;9.190;2023-11-21T02:08:45;9.00;99.90
13174;DHT22;6652;48.802;9.190;2023-11-21T02:11:12;9.00;99.90
13174;DHT22;6652;48.802;9.190;2023-11-21T02:13:40;9.00;99.90
13174;DHT22;6652;48.802;9.190;2023-11-21T02:16:09;9.60;99.90
13174;DHT22;6652;48.802;9.190;2023-11-21T02:18:38;9.00;99.90
13174;DHT22;6652;48.802;9.190;2023-11-21T02:21:05;9.20;99.90
13174;DHT22;6652;48.802;9.190;2023-11-21T02:23:33;8.90;99.90
13174;DHT22;6652;48.802;9.190;2023-11-21T02:26:00;8.90;99.90
13174;DHT22;6652;48.802;9.190;2023-11-21T02:28:30;9.90;99.90
13174;DHT22;6652;48.802;9.190;2023-11-21T02:30:56;9.10;99.90
13174;DHT22;6652;48.802;9.190;2023-11-21T02:33:24;9.10;99.90
13174;DHT22;6652;48.802;9.190;2023-11-21T02:35:52;9.00;99.90
13174;DHT22;6652;48.802;9.190;2023-11-21T02:38:20;9.00;99.90
13174;DHT22;6652;48.802;9.190;2023-11-21T02:40:48;9.10;99.90
13174;DHT22;6652;48.802;9.190;2023-11-21T02:43:15;9.10;99.90
13174;DHT22;6652;48.802;9.190;2023-11-21T02:45:42;9.10;99.90
13174;DHT22;6652;48.802;9.190;2023-11-21T02:48:09;9.20;99.90
13174;DHT22;6652;48.802;9.190;2023-11-21T02:50:36;9.10;99.90
13174;DHT22;6652;48.802;9.190;2023-11-21T02:53:03;9.10;99.90
13174;DHT22;6652;48.802;9.190;2023-11-21T02:55:32;9.10;99.90
13174;DHT22;6652;48.802;9.190;2023-11-21T02:58:02;9.00;99.90
13174;DHT22;6652;48.802;9.190;2023-11-21T03:00:30;9.00;99.90
13174;DHT22;6652;48.802;9.190;2023-11-21T03:02:57;9.00;99.90
13174;DHT22;6652;48.802;9.190;2023-11-21T03:05:24;9.00;99.90
13174;DHT22;6652;48.802;9.190;2023-11-21T03:07:50;9.00;99.90
13174;DHT22;6652;48.802;9.190;2023-11-21T03:10:17;9.00;99.90
13174;DHT22;6652;48.802;9.190;2023-11-21T03:12:44;8.90;99.90
13174;DHT22;6652;48.802;9.190;2023-11-21T03:15:13;9.00;99.90
13174;DHT22;6652;48.802;9.190;2023-11-21T03:17:40;8.90;99.90
13174;DHT22;6652;48.802;9.190;2023-11-21T03:20:08;8.90;99.90
13174;DHT22;6652;48.802;9.190;2023-11-21T03:22:36;8.90;99.90
13174;DHT22;6652;48.802;9.190;2023-11-21T03:25:04;8.90;99.90
13174;DHT22;6652;48.802;9.190;2023-11-21T03:27:31;8.90;99.90
13174;DHT22;6652;48.802;9.190;2023-11-21T03:29:58;8.90;99.90
13174;DHT22;6652;48.802;9.190;2023-11-21T03:32:26;8.80;99.90
13174;DHT22;6652;48.802;9.190;2023-11-21T03:34:54;8.90;99.90
13174;DHT22;6652;48.802;9.190;2023-11-21T03:37:22;8.90;99.90
13174;DHT22;6652;48.802;9.190;2023-11-21T03:39:49;8.90;99.90
13174;DHT22;6652;48.802;9.190;2023-11-21T03:42:16;8.90;99.90
13174;DHT22;6652;48.802;9.190;2023-11-21T03:44:42;8.90;99.90
13174;DHT22;6652;48.802;9.190;2023-11-21T03:47:09;8.90;99.90
13174;DHT22;6652;48.802;9.190;2023-11-21T03:49:38;8.90;99.90
13174;DHT22;6652;48.802;9.190;2023-11-21T03:52:05;9.00;99.90
13174;DHT22;6652;48.802;9.190;2023-11-21T03:54:33;9.00;99.90
13174;DHT22;6652;48.802;9.190;2023-11-21T03:56:59;9.00;99.90
13174;DHT22;6652;48.802;9.190;2023-11-21T03:59:26;9.00;99.90
13174;DHT22;6652;48.802;9.190;2023-11-21T04:01:55;9.30;99.90
13174;DHT22;6652;48.802;9.190;2023-11-21T04:04:22;9.00;99.90
13174;DHT22;6652;48.802;9.190;2023-11-21T04:06:50;9.10;99.90
13174;DHT22;6652;48.802;9.190;2023-11-21T04:09:18;9.00;99.90
13174;DHT22;6652;48.802;9.190;2023-11-21T04:11:45;9.10;99.90
13174;DHT22;6652;48.802;9.190;2023-11-21T04:14:12;9.00;99.90
13174;DHT22;6652;48.802;9.190;2023-11-21T04:16:39;9.90;99.90
13174;DHT22;6652;48.802;9.190;2023-11-21T04:19:06;9.00;99.90
13174;DHT22;6652;48.802;9.190;2023-11-21T04:21:34;9.00;99.90
13174;DHT22;6652;48.802;9.190;2023-11-21T04:24:03;9.70;99.90
13174;DHT22;6652;48.802;9.190;2023-11-21T04:26:30;8.90;99.90
13174;DHT22;6652;48.802;9.190;2023-11-21T04:28:57;8.90;99.90
13174;DHT22;6652;48.802;9.190;2023-11-21T04:31:24;8.90;99.90
13174;DHT22;6652;48.802;9.190;2023-11-21T04:33:51;8.90;99.90
13174;DHT22;6652;48.802;9.190;2023-11-21T04:36:18;8.80;99.90
13174;DHT22;6652;48.802;9.190;2023-11-21T04:38:46;8.80;99.90
13174;DHT22;6652;48.802;9.190;2023-11-21T04:41:14;8.80;99.90
13174;DHT22;6652;48.802;9.190;2023-11-21T04:43:41;8.70;99.90
13174;DHT22;6652;48.802;9.190;2023-11-21T04:46:09;8.70;99.90
13174;DHT22;6652;48.802;9.190;2023-11-21T04:48:36;9.80;99.90
13174;DHT22;6652;48.802;9.190;2023-11-21T04:51:03;9.90;99.90
13174;DHT22;6652;48.802;9.190;2023-11-21T04:53:30;8.60;99.90
13174;DHT22;6652;48.802;9.190;2023-11-21T04:55:57;8.60;99.90
13174;DHT22;6652;48.802;9.190;2023-11-21T04:58:25;8.60;99.90
13174;DHT22;6652;48.802;9.190;2023-11-21T05:00:52;8.60;99.90
13174;DHT22;6652;48.802;9.190;2023-11-21T05:03:19;8.80;99.90
13174;DHT22;6652;48.802;9.190;2023-11-21T05:05:46;8.60;99.90
13174;DHT22;6652;48.802;9.190;2023-11-21T05:08:13;8.60;99.90
13174;DHT22;6652;48.802;9.190;2023-11-21T05:10:40;8.60;99.90
13174;DHT22;6652;48.802;9.190;2023-11-21T05:13:06;8.60;99.90
13174;DHT22;6652;48.802;9.190;2023-11-21T05:15:37;8.60;99.90
13174;DHT22;6652;48.802;9.190;2023-11-21T05:18:05;8.60;99.90
13174;DHT22;6652;48.802;9.190;2023-11-21T05:20:32;8.60;99.90
13174;DHT22;6652;48.802;9.190;2023-11-21T05:22:58;8.70;99.90
13174;DHT22;6652;48.802;9.190;2023-11-21T05:25:25;8.70;99.90
13174;DHT22;6652;48.802;9.190;2023-11-21T05:27:52;8.70;99.90
13174;DHT22;6652;48.802;9.190;2023-11-21T05:30:20;9.00;99.90
13174;DHT22;6652;48.802;9.190;2023-11-21T05:32:49;8.80;99.90
13174;DHT22;6652;48.802;9.190;2023-11-21T05:35:16;8.80;99.90
13174;DHT22;6652;48.802;9.190;2023-11-21T05:37:46;8.80;99.90
13174;DHT22;6652;48.802;9.190;2023-11-21T05:40:13;8.80;99.90
13174;DHT22;6652;48.802;9.190;2023-11-21T05:42:40;8.80;99.90
13174;DHT22;6652;48.802;9.190;2023-11-21T05:45:07;8.70;99.90
13174;DHT22;6652;48.802;9.190;2023-11-21T05:47:37;8.70;99.90
13174;DHT22;6652;48.802;9.190;2023-11-21T05:50:07;8.80;99.90
13174;DHT22;6652;48.802;9.190;2023-11-21T05:52:37;8.80;99.90
13174;DHT22;6652;48.802;9.190;2023-11-21T05:55:05;9.60;99.90
13174;DHT22;6652;48.802;9.190;2023-11-21T05:57:33;8.70;99.90
13174;DHT22;6652;48.802;9.190;2023-11-21T06:00:02;8.70;99.90
13174;DHT22;6652;48.802;9.190;2023-11-21T06:02:30;8.70;99.90
13174;DHT22;6652;48.802;9.190;2023-11-21T06:04:57;8.70;99.90
13174;DHT22;6652;48.802;9.190;2023-11-21T06:07:25;8.70;99.90
13174;DHT22;6652;48.802;9.190;2023-11-21T06:09:52;9.40;99.90
13174;DHT22;6652;48.802;9.190;2023-11-21T06:12:19;8.60;99.90
13174;DHT22;6652;48.802;9.190;2023-11-21T06:14:45;8.60;99.90
13174;DHT22;6652;48.802;9.190;2023-11-21T06:17:13;8.70;99.90
13174;DHT22;6652;48.802;9.190;2023-11-21T06:19:40;9.70;99.90
13174;DHT22;6652;48.802;9.190;2023-11-21T06:22:07;8.70;99.90
13174;DHT22;6652;48.802;9.190;2023-11-21T06:24:36;8.60;99.90
13174;DHT22;6652;48.802;9.190;2023-11-21T06:27:03;8.60;99.90
13174;DHT22;6652;48.802;9.190;2023-11-21T06:29:30;8.70;99.90
13174;DHT22;6652;48.802;9.190;2023-11-21T06:31:58;8.70;99.90
13174;DHT22;6652;48.802;9.190;2023-11-21T06:34:25;8.80;99.90
13174;DHT22;6652;48.802;9.190;2023-11-21T06:36:53;8.80;99.90
13174;DHT22;6652;48.802;9.190;2023-11-21T06:39:20;8.80;99.90
13174;DHT22;6652;48.802;9.190;2023-11-21T06:41:49;8.90;99.90
13174;DHT22;6652;48.802;9.190;2023-11-21T06:44:16;8.90;99.90
13174;DHT22;6652;48.802;9.190;2023-11-21T06:46:43;8.90;99.90
13174;DHT22;6652;48.802;9.190;2023-11-21T06:49:10;8.90;99.90
13174;DHT22;6652;48.802;9.190;2023-11-21T06:51:37;8.90;99.90
13174;DHT22;6652;48.802;9.190;2023-11-21T06:54:06;8.90;99.90
13174;DHT22;6652;48.802;9.190;2023-11-21T06:56:32;8.90;99.90
13174;DHT22;6652;48.802;9.190;2023-11-21T06:59:02;8.90;99.90
13174;DHT22;6652;48.802;9.190;2023-11-21T07:01:31;8.90;99.90
13174;DHT22;6652;48.802;9.190;2023-11-21T07:04:00;9.00;99.90
13174;DHT22;6652;48.802;9.190;2023-11-21T07:06:27;9.00;99.90
13174;DHT22;6652;48.802;9.190;2023-11-21T07:08:54;9.00;99.90
13174;DHT22;6652;48.802;9.190;2023-11-21T07:11:20;9.00;99.90
13174;DHT22;6652;48.802;9.190;2023-11-21T07:13:48;9.40;99.90
13174;DHT22;6652;48.802;9.190;2023-11-21T07:16:16;9.10;99.90
13174;DHT22;6652;48.802;9.190;2023-11-21T07:18:44;9.10;99.90
13174;DHT22;6652;48.802;9.190;2023-11-21T07:21:11;9.10;99.90
13174;DHT22;6652;48.802;9.190;2023-11-21T07:23:38;9.20;99.90
13174;DHT22;6652;48.802;9.190;2023-11-21T07:26:05;9.20;99.90
13174;DHT22;6652;48.802;9.190;2023-11-21T07:28:34;9.20;99.90
13174;DHT22;6652;48.802;9.190;2023-11-21T07:31:01;9.20;99.90
13174;DHT22;6652;48.802;9.190;2023-11-21T07:33:30;9.20;99.90
13174;DHT22;6652;48.802;9.190;2023-11-21T07:35:57;9.30;99.90
13174;DHT22;6652;48.802;9.190;2023-11-21T07:38:23;9.30;99.90
13174;DHT22;6652;48.802;9.190;2023-11-21T07:40:50;9.30;99.90
13174;DHT22;6652;48.802;9.190;2023-11-21T07:43:17;9.30;99.90
13174;DHT22;6652;48.802;9.190;2023-11-21T07:45:45;9.30;99.90
13174;DHT22;6652;48.802;9.190;2023-11-21T07:48:11;9.30;99.90
13174;DHT22;6652;48.802;9.190;2023-11-21T07:50:40;9.40;99.90
13174;DHT22;6652;48.802;9.190;2023-11-21T07:53:06;9.50;99.90
13174;DHT22;6652;48.802;9.190;2023-11-21T07:55:33;9.50;99.90
13174;DHT22;6652;48.802;9.190;2023-11-21T07:58:00;9.60;99.90
13174;DHT22;6652;48.802;9.190;2023-11-21T08:00:27;9.60;99.90
13174;DHT22;6652;48.802;9.190;2023-11-21T08:02:55;9.70;99.90
13174;DHT22;6652;48.802;9.190;2023-11-21T08:05:22;9.70;99.90
13174;DHT22;6652;48.802;9.190;2023-11-21T08:07:51;9.70;99.90
13174;DHT22;6652;48.802;9.190;2023-11-21T08:10:17;9.80;99.90
13174;DHT22;6652;48.802;9.190;2023-11-21T08:12:44;9.70;99.90
13174;DHT22;6652;48.802;9.190;2023-11-21T08:15:11;9.70;99.90
13174;DHT22;6652;48.802;9.190;2023-11-21T08:17:38;9.70;99.90
13174;DHT22;6652;48.802;9.190;2023-11-21T08:20:05;9.70;99.90
13174;DHT22;6652;48.802;9.190;2023-11-21T08:22:34;9.70;99.90
13174;DHT22;6652;48.802;9.190;2023-11-21T08:25:03;9.60;99.90
13174;DHT22;6652;48.802;9.190;2023-11-21T08:27:30;9.70;99.90
13174;DHT22;6652;48.802;9.190;2023-11-21T08:29:57;9.70;99.90
13174;DHT22;6652;48.802;9.190;2023-11-21T08:32:24;9.70;99.90
13174;DHT22;6652;48.802;9.190;2023-11-21T08:34:50;9.70;99.90
13174;DHT22;6652;48.802;9.190;2023-11-21T08:37:17;9.80;99.90
13174;DHT22;6652;48.802;9.190;2023-11-21T08:39:44;9.90;99.90
13174;DHT22;6652;48.802;9.190;2023-11-21T08:42:12;9.90;99.90
13174;DHT22;6652;48.802;9.190;2023-11-21T08:44:40;9.90;99.90
13174;DHT22;6652;48.802;9.190;2023-11-21T08:47:07;10.00;99.90
13174;DHT22;6652;48.802;9.190;2023-11-21T08:49:34;10.00;99.90
13174;DHT22;6652;48.802;9.190;2023-11-21T08:52:01;10.00;99.90
13174;DHT22;6652;48.802;9.190;2023-11-21T08:54:28;10.10;99.90
13174;DHT22;6652;48.802;9.190;2023-11-21T08:56:55;10.20;99.90
13174;DHT22;6652;48.802;9.190;2023-11-21T08:59:24;10.30;99.90
13174;DHT22;6652;48.802;9.190;2023-11-21T09:01:51;10.40;99.90
13174;DHT22;6652;48.802;9.190;2023-11-21T09:04:18;10.50;99.90
13174;DHT22;6652;48.802;9.190;2023-11-21T09:06:45;10.70;99.90
13174;DHT22;6652;48.802;9.190;2023-11-21T09:09:12;10.80;99.90
13174;DHT22;6652;48.802;9.190;2023-11-21T09:11:39;10.90;99.90
13174;DHT22;6652;48.802;9.190;2023-11-21T09:14:06;11.10;99.90
13174;DHT22;6652;48.802;9.190;2023-11-21T09:16:35;11.30;99.90
13174;DHT22;6652;48.802;9.190;2023-11-21T09:19:02;11.30;99.90
13174;DHT22;6652;48.802;9.190;2023-11-21T09:21:31;11.40;99.90
13174;DHT22;6652;48.802;9.190;2023-11-21T09:23:58;11.40;99.90
13174;DHT22;6652;48.802;9.190;2023-11-21T09:26:25;11.60;99.90
13174;DHT22;6652;48.802;9.190;2023-11-21T09:28:52;11.80;99.90
13174;DHT22;6652;48.802;9.190;2023-11-21T09:31:19;12.10;99.90
13174;DHT22;6652;48.802;9.190;2023-11-21T09:33:49;11.90;99.90
13174;DHT22;6652;48.802;9.190;2023-11-21T09:36:16;11.90;99.90
13174;DHT22;6652;48.802;9.190;2023-11-21T09:38:43;11.90;99.90
13174;DHT22;6652;48.802;9.190;2023-11-21T09:41:21;12.00;99.90
13174;DHT22;6652;48.802;9.190;2023-11-21T09:43:48;12.00;99.90
13174;DHT22;6652;48.802;9.190;2023-11-21T09:46:20;12.00;99.90
13174;DHT22;6652;48.802;9.190;2023-11-21T09:48:51;12.00;99.90
13174;DHT22;6652;48.802;9.190;2023-11-21T09:51:19;12.40;99.90
13174;DHT22;6652;48.802;9.190;2023-11-21T09:53:50;12.00;99.90
13174;DHT22;6652;48.802;9.190;2023-11-21T09:56:18;11.90;99.90
13174;DHT22;6652;48.802;9.190;2023-11-21T09:58:51;11.80;99.90
13174;DHT22;6652;48.802;9.190;2023-11-21T10:01:19;11.60;99.90
13174;DHT22;6652;48.802;9.190;2023-11-21T10:03:47;11.50;99.90
13174;DHT22;6652;48.802;9.190;2023-11-21T10:06:16;11.30;99.90
13174;DHT22;6652;48.802;9.190;2023-11-21T10:08:44;11.20;99.90
13174;DHT22;6652;48.802;9.190;2023-11-21T10:11:12;11.20;99.90
13174;DHT22;6652;48.802;9.190;2023-11-21T10:13:41;11.00;99.90
13174;DHT22;6652;48.802;9.190;2023-11-21T10:16:09;11.00;99.90
13174;DHT22;6652;48.802;9.190;2023-11-21T10:18:39;10.90;99.90
13174;DHT22;6652;48.802;9.190;2023-11-21T10:21:07;10.90;99.90
13174;DHT22;6652;48.802;9.190;2023-11-21T10:23:36;10.90;99.90
13174;DHT22;6652;48.802;9.190;2023-11-21T10:26:04;10.90;99.90
13174;DHT22;6652;48.802;9.190;2023-11-21T10:28:35;10.80;99.90
13174;DHT22;6652;48.802;9.190;2023-11-21T10:31:02;10.70;99.90
13174;DHT22;6652;48.802;9.190;2023-11-21T10:33:29;10.70;99.90
13174;DHT22;6652;48.802;9.190;2023-11-21T10:35:56;10.90;99.90
13174;DHT22;6652;48.802;9.190;2023-11-21T10:38:23;11.10;99.90
13174;DHT22;6652;48.802;9.190;2023-11-21T10:40:54;10.80;99.90
13174;DHT22;6652;48.802;9.190;2023-11-21T10:43:24;10.90;99.90
13174;DHT22;6652;48.802;9.190;2023-11-21T10:45:51;11.00;99.90
13174;DHT22;6652;48.802;9.190;2023-11-21T10:48:18;10.90;99.90
13174;DHT22;6652;48.802;9.190;2023-11-21T10:50:46;11.00;99.90
13174;DHT22;6652;48.802;9.190;2023-11-21T10:53:14;11.10;99.90
13174;DHT22;6652;48.802;9.190;2023-11-21T10:55:41;11.20;99.90
13174;DHT22;6652;48.802;9.190;2023-11-21T10:58:13;11.30;99.90
13174;DHT22;6652;48.802;9.190;2023-11-21T11:00:40;11.50;99.90
13174;DHT22;6652;48.802;9.190;2023-11-21T11:03:08;12.30;99.90
13174;DHT22;6652;48.802;9.190;2023-11-21T11:05:40;11.80;99.90
13174;DHT22;6652;48.802;9.190;2023-11-21T11:08:12;11.80;99.90
13174;DHT22;6652;48.802;9.190;2023-11-21T11:10:44;11.90;99.90
13174;DHT22;6652;48.802;9.190;2023-11-21T11:13:13;11.90;99.90
13174;DHT22;6652;48.802;9.190;2023-11-21T11:15:42;12.60;99.90
13174;DHT22;6652;48.802;9.190;2023-11-21T11:18:11;12.10;99.90
13174;DHT22;6652;48.802;9.190;2023-11-21T11:20:40;12.00;99.90
13174;DHT22;6652;48.802;9.190;2023-11-21T11:23:27;12.00;99.90
13174;DHT22;6652;48.802;9.190;2023-11-21T11:26:10;12.00;99.90
13174;DHT22;6652;48.802;9.190;2023-11-21T11:28:47;12.00;99.90
13174;DHT22;6652;48.802;9.190;2023-11-21T11:31:26;12.10;99.90
13174;DHT22;6652;48.802;9.190;2023-11-21T11:33:57;12.20;99.90
13174;DHT22;6652;48.802;9.190;2023-11-21T11:36:29;12.10;99.90
13174;DHT22;6652;48.802;9.190;2023-11-21T11:38:58;12.10;99.90
13174;DHT22;6652;48.802;9.190;2023-11-21T11:41:28;12.10;99.90
13174;DHT22;6652;48.802;9.190;2023-11-21T11:44:00;11.90;99.90
13174;DHT22;6652;48.802;9.190;2023-11-21T11:46:40;11.90;99.90
13174;DHT22;6652;48.802;9.190;2023-11-21T11:49:08;11.90;99.90
13174;DHT22;6652;48.802;9.190;2023-11-21T11:51:35;12.00;99.90
13174;DHT22;6652;48.802;9.190;2023-11-21T11:54:02;11.90;99.90
13174;DHT22;6652;48.802;9.190;2023-11-21T11:56:35;12.00;99.90
13174;DHT22;6652;48.802;9.190;2023-11-21T11:59:04;12.00;99.90
13174;DHT22;6652;48.802;9.190;2023-11-21T12:01:35;12.00;99.90
13174;DHT22;6652;48.802;9.190;2023-11-21T12:04:32;12.00;99.90
13174;DHT22;6652;48.802;9.190;2023-11-21T12:07:04;11.80;99.90
13174;DHT22;6652;48.802;9.190;2023-11-21T12:09:32;11.60;99.90
13174;DHT22;6652;48.802;9.190;2023-11-21T12:11:59;11.50;99.90
13174;DHT22;6652;48.802;9.190;2023-11-21T12:14:28;12.00;99.90
13174;DHT22;6652;48.802;9.190;2023-11-21T12:16:55;11.40;99.90
13174;DHT22;6652;48.802;9.190;2023-11-21T12:19:22;11.40;99.90
13174;DHT22;6652;48.802;9.190;2023-11-21T12:21:49;11.50;99.90
13174;DHT22;6652;48.802;9.190;2023-11-21T12:24:17;11.70;99.90
13174;DHT22;6652;48.802;9.190;2023-11-21T12:26:47;11.40;99.90
13174;DHT22;6652;48.802;9.190;2023-11-21T12:29:14;11.40;99.90
13174;DHT22;6652;48.802;9.190;2023-11-21T12:31:44;11.80;99.90
13174;DHT22;6652;48.802;9.190;2023-11-21T12:34:15;11.50;99.90
13174;DHT22;6652;48.802;9.190;2023-11-21T12:36:43;11.50;99.90
13174;DHT22;6652;48.802;9.190;2023-11-21T12:39:11;11.60;99.90
13174;DHT22;6652;48.802;9.190;2023-11-21T12:41:40;11.60;99.90
13174;DHT22;6652;48.802;9.190;2023-11-21T12:44:11;12.30;99.90
13174;DHT22;6652;48.802;9.190;2023-11-21T12:46:43;11.60;99.90
13174;DHT22;6652;48.802;9.190;2023-11-21T12:49:12;12.50;99.90
13174;DHT22;6652;48.802;9.190;2023-11-21T12:51:43;11.70;99.90
13174;DHT22;6652;48.802;9.190;2023-11-21T12:54:10;11.80;99.90
13174;DHT22;6652;48.802;9.190;2023-11-21T12:56:38;11.80;99.90
13174;DHT22;6652;48.802;9.190;2023-11-21T12:59:05;13.00;99.90
13174;DHT22;6652;48.802;9.190;2023-11-21T13:01:32;12.50;99.90
13174;DHT22;6652;48.802;9.190;2023-11-21T13:04:00;11.70;99.90
13174;DHT22;6652;48.802;9.190;2023-11-21T13:06:28;11.80;99.90
13174;DHT22;6652;48.802;9.190;2023-11-21T13:08:59;11.80;99.90
13174;DHT22;6652;48.802;9.190;2023-11-21T13:11:48;12.70;99.90
13174;DHT22;6652;48.802;9.190;2023-11-21T13:14:15;11.80;99.90
13174;DHT22;6652;48.802;9.190;2023-11-21T13:16:42;11.70;99.90
13174;DHT22;6652;48.802;9.190;2023-11-21T13:19:13;11.90;99.90
13174;DHT22;6652;48.802;9.190;2023-11-21T13:21:39;11.60;99.90
13174;DHT22;6652;48.802;9.190;2023-11-21T13:24:06;11.20;99.90
13174;DHT22;6652;48.802;9.190;2023-11-21T13:26:35;10.70;99.90
13174;DHT22;6652;48.802;9.190;2023-11-21T13:29:02;10.60;99.90
13174;DHT22;6652;48.802;9.190;2023-11-21T13:31:30;11.00;99.90
13174;DHT22;6652;48.802;9.190;2023-11-21T13:33:58;10.30;99.90
13174;DHT22;6652;48.802;9.190;2023-11-21T13:36:32;10.20;99.90
13174;DHT22;6652;48.802;9.190;2023-11-21T13:39:00;11.10;99.90
13174;DHT22;6652;48.802;9.190;2023-11-21T13:41:32;10.00;99.90
13174;DHT22;6652;48.802;9.190;2023-11-21T13:43:59;10.00;99.90
13174;DHT22;6652;48.802;9.190;2023-11-21T13:46:39;10.00;99.90
13174;DHT22;6652;48.802;9.190;2023-11-21T14:02:51;10.00;99.90
13174;DHT22;6652;48.802;9.190;2023-11-21T14:05:18;10.00;99.90
13174;DHT22;6652;48.802;9.190;2023-11-21T14:07:54;9.90;99.90
13174;DHT22;6652;48.802;9.190;2023-11-21T14:10:27;9.90;99.90
13174;DHT22;6652;48.802;9.190;2023-11-21T14:13:02;9.90;99.90
13174;DHT22;6652;48.802;9.190;2023-11-21T14:15:31;9.90;99.90
13174;DHT22;6652;48.802;9.190;2023-11-21T14:18:04;9.90;99.90
13174;DHT22;6652;48.802;9.190;2023-11-21T14:20:33;9.90;99.90
13174;DHT22;6652;48.802;9.190;2023-11-21T14:35:59;9.60;99.90
13174;DHT22;6652;48.802;9.190;2023-11-21T14:38:27;9.60;99.90
13174;DHT22;6652;48.802;9.190;2023-11-21T14:40:55;9.60;99.90
13174;DHT22;6652;48.802;9.190;2023-11-21T14:43:22;9.70;99.90
13174;DHT22;6652;48.802;9.190;2023-11-21T14:45:50;9.70;99.90
13174;DHT22;6652;48.802;9.190;2023-11-21T14:48:17;9.70;99.90
13174;DHT22;6652;48.802;9.190;2023-11-21T14:50:58;9.70;99.90
13174;DHT22;6652;48.802;9.190;2023-11-21T14:53:43;9.70;99.90
13174;DHT22;6652;48.802;9.190;2023-11-21T14:56:18;9.80;99.90
13174;DHT22;6652;48.802;9.190;2023-11-21T14:58:52;9.80;99.90
13174;DHT22;6652;48.802;9.190;2023-11-21T15:01:20;9.70;99.90
13174;DHT22;6652;48.802;9.190;2023-11-21T15:03:56;9.70;99.90
13174;DHT22;6652;48.802;9.190;2023-11-21T15:06:24;9.70;99.90
13174;DHT22;6652;48.802;9.190;2023-11-21T15:08:56;9.70;99.90
13174;DHT22;6652;48.802;9.190;2023-11-21T15:11:46;9.70;99.90
13174;DHT22;6652;48.802;9.190;2023-11-21T15:14:13;9.70;99.90
13174;DHT22;6652;48.802;9.190;2023-11-21T15:16:46;9.70;99.90
13174;DHT22;6652;48.802;9.190;2023-11-21T15:19:17;9.80;99.90
13174;DHT22;6652;48.802;9.190;2023-11-21T15:21:52;9.70;99.90
13174;DHT22;6652;48.802;9.190;2023-11-21T15:24:19;9.70;99.90
13174;DHT22;6652;48.802;9.190;2023-11-21T15:26:46;9.70;99.90
13174;DHT22;6652;48.802;9.190;2023-11-21T15:29:12;9.70;99.90
13174;DHT22;6652;48.802;9.190;2023-11-21T15:31:46;10.00;99.90
13174;DHT22;6652;48.802;9.190;2023-11-21T15:34:14;9.70;99.90
13174;DHT22;6652;48.802;9.190;2023-11-21T15:36:41;9.60;99.90
13174;DHT22;6652;48.802;9.190;2023-11-21T15:39:09;9.60;99.90
13174;DHT22;6652;48.802;9.190;2023-11-21T15:41:37;9.70;99.90
13174;DHT22;6652;48.802;9.190;2023-11-21T15:44:08;9.50;99.90
13174;DHT22;6652;48.802;9.190;2023-11-21T15:46:37;9.50;99.90
13174;DHT22;6652;48.802;9.190;2023-11-21T15:49:26;9.40;99.90
13174;DHT22;6652;48.802;9.190;2023-11-21T15:51:55;9.50;99.90
13174;DHT22;6652;48.802;9.190;2023-11-21T15:54:25;9.30;99.90
13174;DHT22;6652;48.802;9.190;2023-11-21T15:56:53;9.30;99.90
13174;DHT22;6652;48.802;9.190;2023-11-21T15:59:22;9.30;99.90
13174;DHT22;6652;48.802;9.190;2023-11-21T16:01:49;9.30;99.90
13174;DHT22;6652;48.802;9.190;2023-11-21T16:04:16;9.30;99.90
13174;DHT22;6652;48.802;9.190;2023-11-21T16:06:45;10.00;99.90
13174;DHT22;6652;48.802;9.190;2023-11-21T16:09:12;9.30;99.90
13174;DHT22;6652;48.802;9.190;2023-11-21T16:11:47;9.30;99.90
13174;DHT22;6652;48.802;9.190;2023-11-21T16:14:15;9.20;99.90
13174;DHT22;6652;48.802;9.190;2023-11-21T16:16:42;9.20;99.90
13174;DHT22;6652;48.802;9.190;2023-11-21T16:19:09;9.30;99.90
13174;DHT22;6652;48.802;9.190;2023-11-21T16:21:36;9.30;99.90
13174;DHT22;6652;48.802;9.190;2023-11-21T16:24:05;9.90;99.90
13174;DHT22;6652;48.802;9.190;2023-11-21T16:26:32;9.20;99.90
13174;DHT22;6652;48.802;9.190;2023-11-21T16:29:01;9.30;99.90
13174;DHT22;6652;48.802;9.190;2023-11-21T16:31:28;9.30;99.90